MMGM/GYM METAR and TAF weather

Enter ICAO airport designator
Station Type Date Time Source
MMGM METAR 2020/04/05 21:40 UTC NOAA

MMGM 052140Z 20010KT 10SM SCT200 25/06 A2980 RMK 8/001


Station Type Date Time Source
MMGM Decoded METAR 2020/04/05 21:40 UTC NOAA

Guaymas International Airport, Mexico (MMGM) 27-58N 110-56W
Apr 05, 2020 - 05:40 PM EDT / 2020.04.05 2140 UTC
Wind: from the SSW (200 degrees) at 12 MPH (10 KT):0
Visibility: 10 mile(s):0
Sky conditions: partly cloudy
Temperature: 77 F (25 C)
Dew Point: 42 F (6 C)
Relative Humidity: 29%
Pressure (altimeter): 29.8 in. Hg (1009 hPa)
ob: MMGM 052140Z 20010KT 10SM SCT200 25/06 A2980 RMK 8/001
cycle: 21

Station Type Date Time Source
MMGM TAF 2020/04/05 18:38 UTC NOAA

TAF MMGM 051635Z 0518/0618 26010KT P6SM SCT020 BKN100 BKN230
BECMG 0602/0603 00000KT
FM061500 20010KT P6SM SCT100 BKN250

Example: see airport list